createdAt,value
2022-08-08T00:00:56.638Z,23.80
2022-08-08T00:02:33.584Z,25.54
2022-08-08T00:04:49.453Z,24.65
2022-08-08T00:07:15.614Z,24.80
2022-08-08T00:09:24.516Z,24.92
2022-08-08T00:12:02.822Z,24.38
2022-08-08T00:14:16.497Z,24.79
2022-08-08T00:16:37.415Z,25.08
2022-08-08T00:18:49.460Z,25.19
2022-08-08T00:20:53.995Z,25.01
2022-08-08T00:23:02.552Z,24.81
2022-08-08T00:25:13.420Z,25.15
2022-08-08T00:27:18.342Z,25.08
2022-08-08T00:29:44.854Z,25.23
2022-08-08T00:32:32.546Z,25.00
2022-08-08T00:34:46.147Z,28.47
2022-08-08T00:37:03.688Z,28.54
2022-08-08T00:41:07.924Z,29.56
2022-08-08T00:42:08.837Z,28.06
2022-08-08T00:44:36.276Z,27.98
2022-08-08T00:47:36.830Z,25.29
2022-08-08T00:50:32.737Z,24.56
2022-08-08T00:52:48.897Z,27.55
2022-08-08T00:55:52.354Z,25.88
2022-08-08T00:58:16.477Z,25.34
2022-08-08T01:00:22.209Z,25.57
2022-08-08T01:03:57.546Z,26.70
2022-08-08T01:06:02.291Z,26.12
2022-08-08T01:08:46.674Z,25.19
2022-08-08T01:11:21.740Z,24.67
2022-08-08T01:14:16.548Z,28.14
2022-08-08T01:16:51.128Z,26.22
2022-08-08T01:19:51.982Z,28.30
2022-08-08T01:22:23.366Z,24.96
2022-08-08T01:24:43.642Z,25.40
2022-08-08T01:27:16.166Z,24.51
2022-08-08T01:29:58.639Z,25.13
2022-08-08T01:32:34.668Z,24.92
2022-08-08T01:34:57.137Z,25.36
2022-08-08T01:37:58.302Z,26.99
2022-08-08T01:40:14.646Z,25.79
2022-08-08T01:42:36.313Z,28.37
2022-08-08T01:44:54.915Z,26.75
2022-08-08T01:48:16.014Z,25.86
2022-08-08T01:49:48.701Z,26.04
2022-08-08T01:52:27.974Z,25.49
2022-08-08T01:55:18.789Z,25.69
2022-08-08T01:57:10.727Z,25.98
2022-08-08T02:00:02.041Z,25.33
2022-08-08T02:02:10.081Z,25.44
2022-08-08T02:04:37.352Z,25.60
2022-08-08T02:06:57.208Z,26.68
2022-08-08T02:09:03.435Z,29.21
2022-08-08T02:12:00.174Z,29.41
2022-08-08T02:13:57.563Z,26.29
2022-08-08T02:16:10.063Z,25.78
2022-08-08T02:18:36.379Z,25.69
2022-08-08T02:21:00.595Z,25.65
2022-08-08T02:23:20.489Z,25.75
2022-08-08T02:25:43.529Z,26.04
2022-08-08T02:27:58.089Z,26.43
2022-08-08T02:30:07.793Z,26.82
2022-08-08T02:32:37.330Z,26.68
2022-08-08T02:35:10.467Z,26.81
2022-08-08T02:37:53.146Z,27.20
2022-08-08T02:39:58.435Z,28.25
2022-08-08T02:42:35.900Z,27.59
2022-08-08T02:45:09.669Z,27.96
2022-08-08T02:48:03.270Z,28.79
2022-08-08T02:51:11.731Z,28.21
2022-08-08T02:53:26.940Z,27.82
2022-08-08T02:56:03.258Z,30.28
2022-08-08T02:59:01.758Z,30.04
2022-08-08T03:01:47.184Z,30.39
2022-08-08T03:05:02.469Z,27.75
2022-08-08T03:07:41.917Z,27.60
2022-08-08T03:10:37.862Z,26.80
2022-08-08T03:15:53.519Z,28.52
2022-08-08T03:16:10.327Z,30.37
2022-08-08T03:18:30.800Z,27.51
2022-08-08T03:20:51.589Z,29.32
2022-08-08T03:22:56.671Z,27.33
2022-08-08T03:25:00.883Z,27.48
2022-08-08T03:27:13.045Z,28.75
2022-08-08T03:29:26.642Z,27.60
2022-08-08T03:32:05.846Z,27.70
2022-08-08T03:34:03.793Z,28.21
2022-08-08T03:36:10.513Z,27.84
2022-08-08T03:38:57.942Z,27.67
2022-08-08T03:40:36.953Z,28.35
2022-08-08T03:42:39.227Z,28.55
2022-08-08T03:44:52.107Z,28.11
2022-08-08T03:46:54.164Z,28.29
2022-08-08T03:49:30.873Z,29.47
2022-08-08T03:51:19.372Z,28.26
2022-08-08T03:53:42.354Z,28.25
2022-08-08T03:55:56.067Z,28.18
2022-08-08T03:58:35.586Z,28.49
2022-08-08T04:00:25.828Z,28.63
2022-08-08T04:02:33.314Z,28.11
2022-08-08T04:04:38.497Z,28.45
2022-08-08T04:06:40.174Z,28.36
2022-08-08T04:08:46.046Z,28.56
2022-08-08T04:10:48.945Z,28.94
2022-08-08T04:13:17.215Z,28.89
2022-08-08T04:15:22.344Z,28.67
2022-08-08T04:17:46.441Z,28.45
2022-08-08T04:19:45.646Z,29.03
2022-08-08T04:21:47.646Z,28.28
2022-08-08T04:24:05.679Z,28.83
2022-08-08T04:26:16.096Z,28.61
2022-08-08T04:28:36.167Z,29.81
2022-08-08T04:30:44.278Z,29.70
2022-08-08T04:32:50.445Z,29.38
2022-08-08T04:34:58.589Z,28.69
2022-08-08T04:37:00.989Z,29.44
2022-08-08T04:40:04.620Z,28.93
2022-08-08T04:41:36.690Z,28.68
2022-08-08T04:43:45.415Z,28.38
2022-08-08T04:45:49.467Z,28.71
2022-08-08T04:47:51.119Z,28.67
2022-08-08T04:50:00.538Z,29.09
2022-08-08T04:52:04.148Z,28.88
2022-08-08T04:54:38.812Z,29.03
2022-08-08T04:56:30.839Z,28.40
2022-08-08T04:58:33.647Z,29.45
2022-08-08T05:00:35.271Z,29.46
2022-08-08T05:02:37.252Z,30.28
2022-08-08T05:04:44.470Z,30.20
2022-08-08T05:06:46.597Z,30.14
2022-08-08T05:08:51.676Z,29.94
2022-08-08T05:10:55.041Z,29.91
2022-08-08T05:13:02.227Z,30.16
2022-08-08T05:15:05.262Z,30.06
2022-08-08T05:17:09.086Z,29.95
2022-08-08T05:20:11.421Z,30.01
2022-08-08T05:21:43.795Z,29.88
2022-08-08T05:24:04.208Z,29.71
2022-08-08T05:26:14.081Z,29.92
2022-08-08T05:28:16.149Z,29.72
2022-08-08T05:30:38.020Z,30.21
2022-08-08T05:32:40.343Z,30.57
2022-08-08T05:34:46.388Z,31.12
2022-08-08T05:36:49.679Z,30.60
2022-08-08T05:38:53.568Z,30.93
2022-08-08T05:40:58.314Z,30.75
2022-08-08T05:43:38.512Z,30.68
2022-08-08T05:45:41.596Z,30.69
2022-08-08T05:48:00.093Z,31.50
2022-08-08T05:50:03.815Z,30.34
2022-08-08T05:52:06.306Z,30.52
2022-08-08T05:54:28.688Z,30.06
2022-08-08T05:59:04.416Z,30.82
2022-08-08T06:01:08.650Z,30.55
2022-08-08T06:03:24.980Z,30.38
2022-08-08T06:05:35.199Z,30.09
2022-08-08T06:07:39.842Z,31.71
2022-08-08T06:10:00.922Z,31.51
2022-08-08T06:12:04.763Z,30.63
2022-08-08T06:14:12.857Z,30.28
2022-08-08T06:16:27.574Z,30.35
2022-08-08T06:18:32.108Z,30.25
2022-08-08T06:20:34.308Z,29.60
2022-08-08T06:22:36.193Z,30.18
2022-08-08T06:24:37.810Z,30.86
2022-08-08T06:26:52.603Z,29.84
2022-08-08T06:29:02.475Z,30.64
2022-08-08T06:31:09.824Z,30.44
2022-08-08T06:33:36.809Z,32.19
2022-08-08T06:36:06.512Z,30.91
2022-08-08T06:38:14.059Z,30.76
2022-08-08T06:40:16.927Z,30.34
2022-08-08T06:42:19.203Z,30.89
2022-08-08T06:44:23.316Z,28.89
2022-08-08T06:46:30.047Z,30.04
2022-08-08T06:48:32.910Z,29.52
2022-08-08T06:50:38.682Z,30.31
2022-08-08T06:52:42.870Z,29.58
2022-08-08T06:54:48.839Z,29.50
2022-08-08T06:56:52.757Z,29.78
2022-08-08T06:58:54.604Z,29.40
2022-08-08T07:00:56.842Z,28.79
2022-08-08T07:03:07.271Z,27.70
2022-08-08T07:05:14.087Z,28.00
2022-08-08T07:07:33.491Z,28.02
2022-08-08T07:09:59.765Z,29.14
2022-08-08T07:12:07.350Z,28.78
2022-08-08T07:14:17.480Z,33.03
2022-08-08T07:16:27.344Z,30.58
2022-08-08T07:18:42.929Z,34.40
2022-08-08T07:20:50.772Z,35.36
2022-08-08T07:23:01.255Z,34.36
2022-08-08T07:25:06.879Z,31.77
2022-08-08T07:27:12.341Z,33.70
2022-08-08T07:29:59.949Z,30.01
2022-08-08T07:31:41.158Z,29.19
2022-08-08T07:33:53.254Z,29.38
2022-08-08T07:36:02.450Z,29.73
2022-08-08T07:38:18.407Z,28.82
2022-08-08T07:40:29.839Z,28.02
2022-08-08T07:42:36.929Z,27.83
2022-08-08T07:44:43.460Z,27.71
2022-08-08T07:46:45.707Z,27.17
2022-08-08T07:48:48.694Z,27.30
2022-08-08T07:50:52.824Z,27.49
2022-08-08T07:52:59.389Z,26.43
2022-08-08T07:55:06.393Z,28.01
2022-08-08T07:57:19.993Z,26.93
2022-08-08T07:59:25.064Z,26.91
2022-08-08T08:02:33.153Z,29.06
2022-08-08T08:03:57.695Z,27.12
2022-08-08T08:06:03.679Z,26.90
2022-08-08T08:08:07.741Z,27.84
2022-08-08T08:10:12.328Z,29.10
2022-08-08T08:12:31.889Z,26.73
2022-08-08T08:14:52.695Z,27.83
2022-08-08T08:16:55.575Z,27.47
2022-08-08T08:19:02.862Z,27.68
2022-08-08T08:21:13.368Z,28.19
2022-08-08T08:23:20.477Z,30.02
2022-08-08T08:25:43.056Z,26.96
2022-08-08T08:27:48.380Z,28.03
2022-08-08T08:29:53.170Z,28.01
2022-08-08T08:31:57.267Z,28.05
2022-08-08T08:34:00.622Z,27.04
2022-08-08T08:36:21.077Z,27.73
2022-08-08T08:38:23.689Z,27.47
2022-08-08T08:40:26.264Z,28.01
2022-08-08T08:42:35.272Z,26.64
2022-08-08T08:44:39.447Z,27.67
2022-08-08T08:46:47.235Z,27.80
2022-08-08T08:48:50.099Z,28.32
2022-08-08T08:50:55.242Z,27.80
2022-08-08T08:53:04.685Z,28.02
2022-08-08T08:55:21.746Z,27.89
2022-08-08T08:57:31.556Z,29.72
2022-08-08T09:00:01.911Z,28.20
2022-08-08T09:02:08.457Z,27.69
2022-08-08T09:04:30.858Z,27.85
2022-08-08T09:06:44.858Z,28.31
2022-08-08T09:08:56.599Z,28.41
2022-08-08T09:10:58.776Z,28.10
2022-08-08T09:13:02.104Z,28.20
2022-08-08T09:15:06.114Z,27.77
2022-08-08T09:17:12.875Z,27.59
2022-08-08T09:19:33.944Z,26.98
2022-08-08T09:21:58.130Z,27.42
2022-08-08T09:24:04.040Z,27.82
2022-08-08T09:26:12.490Z,27.73
2022-08-08T09:28:35.203Z,27.17
2022-08-08T09:30:41.980Z,27.27
2022-08-08T09:33:11.828Z,27.30
2022-08-08T09:35:09.563Z,26.55
2022-08-08T09:37:39.428Z,26.61
2022-08-08T09:39:59.577Z,27.73
2022-08-08T09:42:20.764Z,27.98
2022-08-08T09:44:34.360Z,27.93
2022-08-08T09:46:38.984Z,27.78
2022-08-08T09:48:49.948Z,26.76
2022-08-08T09:50:56.198Z,27.53
2022-08-08T09:53:14.387Z,28.01
2022-08-08T09:55:51.447Z,27.75
2022-08-08T09:57:55.779Z,25.20
2022-08-08T10:00:35.783Z,26.90
2022-08-08T10:02:23.340Z,27.81
2022-08-08T10:04:38.487Z,27.26
2022-08-08T10:06:44.943Z,27.67
2022-08-08T10:08:50.742Z,27.65
2022-08-08T10:10:58.625Z,27.74
2022-08-08T10:13:14.126Z,27.83
2022-08-08T10:15:18.300Z,27.15
2022-08-08T10:17:56.900Z,27.42
2022-08-08T10:19:46.154Z,25.87
2022-08-08T10:22:00.616Z,24.20
2022-08-08T10:24:28.226Z,27.36
2022-08-08T10:26:57.173Z,27.51
2022-08-08T10:28:55.924Z,27.62
2022-08-08T10:31:01.725Z,26.61
2022-08-08T10:33:08.480Z,27.22
2022-08-08T10:35:20.170Z,27.21
2022-08-08T10:37:38.251Z,27.28
2022-08-08T10:39:54.366Z,27.07
2022-08-08T10:42:15.290Z,25.06
2022-08-08T10:44:24.348Z,24.56
2022-08-08T10:46:29.883Z,26.03
2022-08-08T10:48:37.353Z,27.01
2022-08-08T10:50:54.984Z,27.35
2022-08-08T10:53:01.543Z,27.12
2022-08-08T10:55:06.814Z,27.17
2022-08-08T10:57:08.931Z,27.49
2022-08-08T10:59:14.253Z,25.71
2022-08-08T11:01:18.530Z,27.28
2022-08-08T11:03:37.147Z,26.90
2022-08-08T11:05:51.667Z,26.67
2022-08-08T11:08:37.271Z,26.74
2022-08-08T11:10:29.010Z,23.80
2022-08-08T11:12:32.542Z,23.83
2022-08-08T11:14:49.454Z,23.60
2022-08-08T11:16:51.686Z,26.33
2022-08-08T11:18:54.761Z,26.65
2022-08-08T11:21:00.386Z,26.63
2022-08-08T11:23:05.564Z,25.88
2022-08-08T11:25:14.266Z,26.73
2022-08-08T11:27:23.759Z,26.93
2022-08-08T11:29:50.739Z,26.55
2022-08-08T11:31:56.382Z,26.80
2022-08-08T11:34:03.127Z,26.97
2022-08-08T11:36:05.921Z,26.84
2022-08-08T11:38:38.561Z,26.38
2022-08-08T11:40:32.222Z,26.42
2022-08-08T11:42:36.954Z,26.34
2022-08-08T11:44:41.033Z,26.57
2022-08-08T11:46:42.707Z,26.33
2022-08-08T11:48:47.381Z,26.14
2022-08-08T11:50:52.595Z,26.13
2022-08-08T11:52:56.307Z,26.27
2022-08-08T11:55:00.582Z,26.04
2022-08-08T11:57:14.087Z,25.89
2022-08-08T11:59:19.910Z,26.16
2022-08-08T12:01:41.502Z,23.65
2022-08-08T12:03:45.801Z,23.57
2022-08-08T12:05:48.787Z,23.49
2022-08-08T12:07:52.570Z,25.87
2022-08-08T12:09:56.868Z,25.61
2022-08-08T12:12:04.133Z,26.13
2022-08-08T12:14:07.778Z,25.65
2022-08-08T12:16:16.647Z,25.22
2022-08-08T12:18:21.382Z,24.51
2022-08-08T12:20:24.346Z,22.84
2022-08-08T12:22:32.741Z,24.36
2022-08-08T12:24:51.322Z,23.88
2022-08-08T12:26:58.411Z,20.28
2022-08-08T12:29:00.629Z,20.98
2022-08-08T12:31:06.051Z,20.93
2022-08-08T12:33:20.844Z,21.57
2022-08-08T12:35:23.329Z,21.10
2022-08-08T12:37:40.007Z,19.97
2022-08-08T12:40:00.675Z,20.55
2022-08-08T12:42:04.824Z,19.49
2022-08-08T12:44:10.741Z,19.38
2022-08-08T12:46:19.040Z,19.90
2022-08-08T12:48:36.530Z,20.05
2022-08-08T12:50:42.073Z,19.16
2022-08-08T12:52:53.668Z,19.24
2022-08-08T12:55:02.704Z,17.96
2022-08-08T12:57:17.296Z,17.75
2022-08-08T12:59:36.415Z,17.94
2022-08-08T13:01:54.126Z,17.46
2022-08-08T13:03:57.202Z,17.65
2022-08-08T13:06:13.291Z,17.38
2022-08-08T13:08:16.817Z,17.59
2022-08-08T13:10:18.667Z,17.71
2022-08-08T13:12:29.085Z,17.30
2022-08-08T13:14:39.682Z,16.89
2022-08-08T13:16:59.399Z,17.44
2022-08-08T13:19:07.932Z,17.41
2022-08-08T13:21:14.272Z,16.87
2022-08-08T13:23:36.398Z,17.21
2022-08-08T13:25:40.635Z,17.73
2022-08-08T13:27:43.301Z,18.01
2022-08-08T13:29:50.441Z,15.10
2022-08-08T13:31:52.427Z,17.26
2022-08-08T13:33:54.489Z,17.00
2022-08-08T13:35:57.928Z,16.64
2022-08-08T13:38:06.492Z,16.73
2022-08-08T13:40:10.854Z,16.54
2022-08-08T13:42:12.501Z,16.65
2022-08-08T13:44:19.485Z,16.52
2022-08-08T13:46:26.299Z,16.79
2022-08-08T13:48:29.238Z,17.04
2022-08-08T13:50:43.095Z,16.92
2022-08-08T13:52:55.237Z,15.67
2022-08-08T13:54:58.806Z,16.33
2022-08-08T13:57:02.505Z,15.91
2022-08-08T13:59:05.032Z,15.54
2022-08-08T14:01:16.136Z,16.12
2022-08-08T14:03:53.083Z,17.02
2022-08-08T14:05:58.847Z,16.74
2022-08-08T14:08:06.432Z,16.31
2022-08-08T14:10:33.675Z,16.78
2022-08-08T14:12:43.680Z,16.54
2022-08-08T14:14:47.022Z,17.11
2022-08-08T14:16:49.879Z,16.73
2022-08-08T14:18:54.127Z,19.01
2022-08-08T14:21:02.438Z,18.34
2022-08-08T14:23:10.289Z,19.53
2022-08-08T14:25:22.824Z,19.78
2022-08-08T14:27:29.007Z,16.81
2022-08-08T14:29:31.070Z,18.15
2022-08-08T14:32:10.720Z,20.55
2022-08-08T14:34:19.390Z,20.64
2022-08-08T14:36:33.194Z,21.35
2022-08-08T14:38:53.007Z,21.86
2022-08-08T14:41:10.334Z,21.18
2022-08-08T14:43:31.776Z,21.83
2022-08-08T14:46:02.038Z,21.92
2022-08-08T14:47:57.789Z,21.23
2022-08-08T14:50:15.128Z,21.41
2022-08-08T14:52:24.332Z,22.40
2022-08-08T14:54:29.442Z,22.14
2022-08-08T14:56:32.160Z,22.41
2022-08-08T14:58:35.201Z,22.53
2022-08-08T15:00:36.805Z,20.62
2022-08-08T15:02:58.748Z,20.39
2022-08-08T15:05:11.500Z,22.25
2022-08-08T15:07:24.482Z,22.32
2022-08-08T15:09:36.581Z,18.34
2022-08-08T15:11:45.993Z,17.95
2022-08-08T15:14:03.041Z,21.29
2022-08-08T15:16:05.376Z,19.79
2022-08-08T15:18:07.602Z,20.59
2022-08-08T15:20:14.519Z,22.88
2022-08-08T15:22:17.900Z,19.34
2022-08-08T15:24:31.398Z,21.59
2022-08-08T15:26:34.875Z,23.17
2022-08-08T15:28:36.766Z,23.57
2022-08-08T15:30:38.590Z,24.11
2022-08-08T15:32:40.565Z,19.24
2022-08-08T15:34:45.115Z,23.21
2022-08-08T15:36:46.737Z,23.39
2022-08-08T15:38:50.250Z,20.72
2022-08-08T15:40:52.541Z,18.99
2022-08-08T15:42:55.686Z,23.35
2022-08-08T15:44:57.265Z,23.86
2022-08-08T15:46:58.871Z,19.57
2022-08-08T15:49:04.190Z,21.70
2022-08-08T15:51:07.047Z,22.24
2022-08-08T15:53:08.896Z,23.23
2022-08-08T15:55:12.960Z,24.34
2022-08-08T15:57:15.435Z,23.79
2022-08-08T15:59:19.014Z,24.54
2022-08-08T16:01:22.496Z,24.82
2022-08-08T16:03:24.315Z,22.52
2022-08-08T16:05:35.820Z,21.78
2022-08-08T16:07:52.686Z,23.33
2022-08-08T16:13:09.542Z,23.24
2022-08-08T16:13:14.029Z,24.46
2022-08-08T16:14:40.036Z,22.71
2022-08-08T16:16:55.189Z,23.43
2022-08-08T16:18:58.264Z,21.54
2022-08-08T16:21:02.518Z,24.30
2022-08-08T16:23:05.273Z,24.43
2022-08-08T16:25:13.147Z,24.75
2022-08-08T16:27:18.016Z,22.26
2022-08-08T16:29:37.154Z,24.21
2022-08-08T16:31:48.494Z,22.72
2022-08-08T16:33:58.240Z,22.99
2022-08-08T16:36:01.109Z,23.49
2022-08-08T16:38:03.241Z,24.52
2022-08-08T16:40:07.349Z,24.46
2022-08-08T16:42:17.975Z,23.08
2022-08-08T16:44:28.072Z,23.01
2022-08-08T16:46:46.370Z,23.85
2022-08-08T16:48:49.677Z,24.46
2022-08-08T16:50:51.391Z,24.67
2022-08-08T16:55:05.353Z,24.21
2022-08-08T16:55:42.893Z,24.86
2022-08-08T16:58:15.817Z,24.66
2022-08-08T16:59:58.890Z,25.07
2022-08-08T17:02:00.614Z,24.19
2022-08-08T17:04:05.438Z,24.95
2022-08-08T17:06:37.526Z,24.71
2022-08-08T17:08:29.625Z,25.42
2022-08-08T17:10:31.279Z,25.65
2022-08-08T17:12:33.582Z,25.35
2022-08-08T17:14:38.355Z,24.83
2022-08-08T17:16:40.467Z,24.98
2022-08-08T17:18:53.263Z,23.79
2022-08-08T17:20:57.575Z,24.84
2022-08-08T17:23:16.354Z,24.78
2022-08-08T17:25:20.937Z,24.66
2022-08-08T17:27:47.223Z,24.84
2022-08-08T17:29:56.565Z,25.18
2022-08-08T17:31:59.298Z,25.12
2022-08-08T17:34:48.249Z,24.97
2022-08-08T17:36:30.880Z,24.77
2022-08-08T17:38:33.575Z,23.74
2022-08-08T17:40:35.812Z,24.94
2022-08-08T17:42:41.089Z,25.04
2022-08-08T17:44:49.032Z,23.49
2022-08-08T17:46:52.880Z,24.94
2022-08-08T17:48:54.966Z,25.03
2022-08-08T17:50:57.562Z,23.97
2022-08-08T17:53:00.867Z,24.47
2022-08-08T17:55:05.719Z,24.97
2022-08-08T17:57:24.905Z,25.04
2022-08-08T17:59:36.085Z,24.97
2022-08-08T18:01:55.506Z,24.67
2022-08-08T18:03:57.855Z,24.82
2022-08-08T18:05:59.422Z,24.88
2022-08-08T18:08:38.200Z,24.77
2022-08-08T18:10:31.031Z,24.70
2022-08-08T18:12:33.331Z,24.85
2022-08-08T18:14:35.854Z,24.77
2022-08-08T18:16:41.284Z,24.76
2022-08-08T18:18:52.486Z,24.95
2022-08-08T18:20:59.549Z,25.01
2022-08-08T18:23:02.990Z,24.74
2022-08-08T18:25:05.576Z,24.27
2022-08-08T18:27:17.257Z,24.98
2022-08-08T18:29:25.408Z,24.94
2022-08-08T18:31:32.049Z,24.89
2022-08-08T18:34:10.805Z,25.09
2022-08-08T18:36:03.025Z,24.92
2022-08-08T18:38:16.706Z,24.96
2022-08-08T18:40:19.180Z,24.94
2022-08-08T18:42:36.642Z,24.77
2022-08-08T18:44:56.014Z,25.06
2022-08-08T18:46:59.324Z,24.93
2022-08-08T18:49:00.994Z,25.12
2022-08-08T18:51:03.220Z,25.06
2022-08-08T18:53:06.236Z,25.01
2022-08-08T18:55:11.464Z,25.06
2022-08-08T18:57:13.291Z,25.11
2022-08-08T18:59:14.977Z,24.94
2022-08-08T19:02:25.540Z,25.12
2022-08-08T19:04:01.387Z,25.18
2022-08-08T19:06:00.352Z,24.89
2022-08-08T19:08:25.783Z,25.07
2022-08-08T19:10:30.263Z,25.36
2022-08-08T19:12:31.977Z,24.92
2022-08-08T19:14:36.955Z,25.00
2022-08-08T19:16:38.931Z,24.31
2022-08-08T19:18:51.356Z,25.11
2022-08-08T19:20:59.402Z,25.43
2022-08-08T19:23:01.236Z,25.08
2022-08-08T19:25:59.902Z,25.19
2022-08-08T19:27:56.900Z,25.20
2022-08-08T19:29:50.034Z,25.40
2022-08-08T19:31:52.060Z,25.45
2022-08-08T19:34:29.487Z,25.17
2022-08-08T19:36:17.991Z,25.20
2022-08-08T19:38:29.686Z,25.21
2022-08-08T19:40:33.410Z,25.17
2022-08-08T19:42:35.574Z,25.10
2022-08-08T19:44:46.420Z,24.83
2022-08-08T19:46:54.545Z,24.76
2022-08-08T19:48:58.669Z,24.33
2022-08-08T19:51:01.386Z,24.86
2022-08-08T19:53:03.411Z,24.42
2022-08-08T19:55:23.905Z,24.90
2022-08-08T19:57:32.693Z,24.89
2022-08-08T19:59:38.439Z,24.17
2022-08-08T20:01:59.830Z,23.22
2022-08-08T20:04:03.700Z,24.08
2022-08-08T20:06:13.400Z,24.39
2022-08-08T20:08:29.341Z,24.58
2022-08-08T20:10:33.434Z,24.56
2022-08-08T20:12:38.276Z,25.07
2022-08-08T20:14:42.227Z,24.43
2022-08-08T20:16:53.368Z,24.28
2022-08-08T20:18:55.091Z,25.26
2022-08-08T20:20:56.973Z,24.88
2022-08-08T20:22:59.361Z,24.00
2022-08-08T20:25:07.897Z,25.23
2022-08-08T20:27:09.937Z,25.20
2022-08-08T20:29:23.182Z,23.59
2022-08-08T20:31:46.938Z,23.41
2022-08-08T20:34:27.823Z,24.77
2022-08-08T20:36:16.607Z,24.67
2022-08-08T20:38:19.199Z,23.43
2022-08-08T20:40:38.949Z,23.43
2022-08-08T20:42:41.037Z,23.17
2022-08-08T20:44:47.260Z,22.38
2022-08-08T20:46:51.555Z,22.25
2022-08-08T20:48:54.738Z,23.81
2022-08-08T20:51:00.098Z,24.03
2022-08-08T20:53:02.535Z,22.56
2022-08-08T20:55:16.453Z,23.79
2022-08-08T20:57:27.806Z,24.52
2022-08-08T20:59:29.750Z,23.67
2022-08-08T21:01:33.512Z,22.94
2022-08-08T21:03:59.813Z,24.79
2022-08-08T21:06:03.262Z,24.65
2022-08-08T21:08:37.011Z,22.78
2022-08-08T21:10:30.630Z,23.55
2022-08-08T21:12:34.889Z,22.88
2022-08-08T21:14:36.567Z,24.96
2022-08-08T21:16:39.603Z,23.55
2022-08-08T21:18:41.388Z,23.66
2022-08-08T21:20:43.033Z,25.96
2022-08-08T21:22:52.364Z,22.58
2022-08-08T21:24:54.720Z,23.17
2022-08-08T21:26:57.234Z,24.24
2022-08-08T21:29:00.597Z,23.21
2022-08-08T21:31:21.669Z,24.33
2022-08-08T21:33:26.393Z,23.57
2022-08-08T21:36:19.127Z,23.69
2022-08-08T21:37:53.520Z,23.86
2022-08-08T21:39:57.351Z,25.47
2022-08-08T21:42:01.861Z,23.79
2022-08-08T21:44:04.034Z,24.55
2022-08-08T21:48:02.027Z,23.91
2022-08-08T21:48:41.306Z,25.89
2022-08-08T21:50:46.146Z,24.35
2022-08-08T21:54:33.580Z,25.14
2022-08-08T21:56:18.475Z,23.71
2022-08-08T21:57:42.860Z,24.42
2022-08-08T22:00:02.691Z,24.15
2022-08-08T22:02:06.277Z,23.72
2022-08-08T22:04:13.868Z,23.69
2022-08-08T22:06:31.235Z,24.38
2022-08-08T22:08:36.946Z,24.25
2022-08-08T22:10:43.658Z,23.67
2022-08-08T22:12:47.052Z,24.30
2022-08-08T22:14:50.045Z,23.83
2022-08-08T22:16:54.196Z,24.09
2022-08-08T22:18:55.836Z,24.48
2022-08-08T22:21:01.612Z,26.04
2022-08-08T22:23:12.881Z,26.47
2022-08-08T22:25:24.549Z,25.48
2022-08-08T22:27:55.980Z,27.45
2022-08-08T22:30:01.699Z,27.62
2022-08-08T22:32:05.677Z,26.54
2022-08-08T22:34:13.117Z,26.92
2022-08-08T22:36:19.967Z,25.60
2022-08-08T22:38:35.919Z,26.75
2022-08-08T22:40:37.656Z,26.75
2022-08-08T22:42:40.524Z,27.38
2022-08-08T22:44:42.564Z,24.27
2022-08-08T22:46:45.945Z,24.25
2022-08-08T22:48:48.043Z,26.91
2022-08-08T22:50:51.044Z,25.47
2022-08-08T22:54:19.552Z,26.82
2022-08-08T22:55:16.627Z,24.96
2022-08-08T22:57:22.806Z,24.76
2022-08-08T22:59:24.397Z,24.67
2022-08-08T23:02:01.678Z,24.04
2022-08-08T23:03:53.648Z,25.28
2022-08-08T23:05:56.636Z,24.45
2022-08-08T23:08:03.628Z,24.27
2022-08-08T23:10:08.919Z,26.07
2022-08-08T23:12:28.328Z,24.79
2022-08-08T23:14:32.915Z,24.52
2022-08-08T23:16:39.286Z,25.47
2022-08-08T23:18:44.425Z,25.60
2022-08-08T23:20:54.931Z,24.38
2022-08-08T23:22:56.743Z,24.13
2022-08-08T23:24:59.687Z,24.95
2022-08-08T23:27:01.405Z,24.51
2022-08-08T23:29:03.005Z,24.41
2022-08-08T23:31:07.899Z,26.21
2022-08-08T23:33:19.008Z,24.74
2022-08-08T23:35:23.101Z,26.06
2022-08-08T23:37:26.368Z,25.30
2022-08-08T23:39:55.093Z,26.48
2022-08-08T23:42:01.718Z,27.33
2022-08-08T23:44:04.509Z,25.19
2022-08-08T23:49:01.625Z,25.45
2022-08-08T23:49:04.763Z,25.41
2022-08-08T23:50:56.975Z,26.83
2022-08-08T23:52:59.084Z,25.43
2022-08-08T23:55:13.963Z,24.32
2022-08-08T23:57:26.639Z,24.85
2022-08-08T23:59:29.593Z,24.82
